createdAt,value
2019-02-18T17:04:20.479Z,50.10
2019-02-18T17:06:51.042Z,50.20
2019-02-18T17:09:22.217Z,50.30
2019-02-18T17:11:52.895Z,50.50
2019-02-18T17:14:23.567Z,50.70
2019-02-18T17:16:54.570Z,50.90
2019-02-18T17:19:25.123Z,51.60
2019-02-18T17:21:55.737Z,51.10
2019-02-18T17:24:26.175Z,51.30
2019-02-18T17:26:56.714Z,51.50
2019-02-18T17:29:28.207Z,52.30
2019-02-18T17:31:59.858Z,51.90
2019-02-18T17:34:30.678Z,52.10
2019-02-18T17:37:01.519Z,52.20
2019-02-18T17:39:32.361Z,52.40
2019-02-18T17:42:02.434Z,52.70
2019-02-18T17:44:33.125Z,53.40
2019-02-18T17:47:03.880Z,53.00
2019-02-18T17:49:34.859Z,53.50
2019-02-18T17:52:05.576Z,53.70
2019-02-18T17:54:36.296Z,54.30
2019-02-18T17:57:06.660Z,54.10
2019-02-18T17:59:37.412Z,53.80
2019-02-18T18:02:08.356Z,53.80
2019-02-18T18:04:38.911Z,53.90
2019-02-18T18:07:09.831Z,54.00
2019-02-18T18:09:40.957Z,54.00
2019-02-18T18:12:11.886Z,54.10
2019-02-18T18:14:42.900Z,54.60
2019-02-18T18:17:14.078Z,55.00
2019-02-18T18:19:45.062Z,55.30
2019-02-18T18:22:15.966Z,55.60
2019-02-18T18:24:46.966Z,55.70
2019-02-18T18:27:17.823Z,55.70
2019-02-18T18:29:49.218Z,56.00
2019-02-18T18:32:20.118Z,56.30
2019-02-18T18:34:50.543Z,56.40
2019-02-18T18:37:21.424Z,56.50
2019-02-18T18:39:52.554Z,56.40
2019-02-18T18:42:25.016Z,56.50
2019-02-18T18:44:55.922Z,57.40
2019-02-18T18:47:26.739Z,57.70
2019-02-18T18:49:57.729Z,57.40
2019-02-18T18:52:30.428Z,57.40
2019-02-18T18:55:01.919Z,57.80
2019-02-18T18:57:32.713Z,58.10
2019-02-18T19:00:04.954Z,58.30
2019-02-18T19:02:37.375Z,58.60
2019-02-18T19:05:09.034Z,58.90
2019-02-18T19:07:40.305Z,59.10
2019-02-18T19:10:11.270Z,59.30
2019-02-18T19:12:42.143Z,59.70
2019-02-18T19:15:14.590Z,59.70
2019-02-18T19:17:45.526Z,59.90
2019-02-18T19:20:16.682Z,59.90
2019-02-18T19:22:47.570Z,60.00
2019-02-18T19:25:18.444Z,60.10
2019-02-18T19:27:49.353Z,60.50
2019-02-18T19:30:31.402Z,60.80
2019-02-18T19:33:03.285Z,61.10
2019-02-18T19:35:33.578Z,61.40
2019-02-18T19:38:04.664Z,61.60
2019-02-18T19:40:35.204Z,61.70
2019-02-18T19:43:06.445Z,62.00
2019-02-18T19:45:36.803Z,62.40
2019-02-18T19:48:07.688Z,62.50
2019-02-18T19:50:38.617Z,62.50
2019-02-18T19:53:10.810Z,62.50
2019-02-18T19:55:41.863Z,62.60
2019-02-18T19:58:12.645Z,62.70
2019-02-18T20:00:43.005Z,62.80
2019-02-18T20:03:14.473Z,62.90
2019-02-18T20:05:45.479Z,62.70
2019-02-18T20:08:18.603Z,62.80
2019-02-18T20:10:48.988Z,63.10
2019-02-18T20:13:20.841Z,63.40
2019-02-18T20:15:51.701Z,63.70
2019-02-18T20:18:22.224Z,63.90
2019-02-18T20:20:52.561Z,64.00
2019-02-18T20:23:24.488Z,64.00
2019-02-18T20:25:55.034Z,64.10
2019-02-18T20:28:25.303Z,64.30
2019-02-18T20:30:55.715Z,64.20
2019-02-18T20:33:26.092Z,63.80
2019-02-18T20:35:57.104Z,63.50
2019-02-18T20:38:27.981Z,63.50
2019-02-18T20:40:59.243Z,63.30
2019-02-18T20:43:30.140Z,63.00
2019-02-18T20:46:01.978Z,62.50
2019-02-18T20:48:32.915Z,62.60
2019-02-18T20:51:03.851Z,62.30
2019-02-18T20:53:35.118Z,61.90
2019-02-18T20:56:06.053Z,62.00
2019-02-18T20:58:38.213Z,62.00
2019-02-18T21:01:11.002Z,62.20
2019-02-18T21:03:41.806Z,62.50
2019-02-18T21:06:12.859Z,62.50
2019-02-18T21:08:44.107Z,62.50
2019-02-18T21:11:14.988Z,62.80
2019-02-18T21:13:45.345Z,62.70
2019-02-18T21:16:16.397Z,62.90
2019-02-18T21:18:46.855Z,62.80
2019-02-18T21:21:17.645Z,62.70
2019-02-18T21:23:48.405Z,63.30
2019-02-18T21:26:18.619Z,62.80
2019-02-18T21:28:49.156Z,62.50
2019-02-18T21:31:19.281Z,61.90
2019-02-18T21:33:50.143Z,62.10
2019-02-18T21:36:20.609Z,61.90
2019-02-18T21:38:51.374Z,62.10
2019-02-18T21:41:21.982Z,62.20
2019-02-18T21:43:51.752Z,62.30
2019-02-18T21:46:22.296Z,62.40
2019-02-18T21:48:52.153Z,62.60
2019-02-18T21:51:22.114Z,62.90
2019-02-18T21:53:51.869Z,63.00
2019-02-18T21:56:21.765Z,62.90
2019-02-18T21:58:51.596Z,63.10
2019-02-18T22:01:21.476Z,63.30
2019-02-18T22:03:51.452Z,63.40
2019-02-18T22:06:21.400Z,63.30
2019-02-18T22:08:51.357Z,63.20
2019-02-18T22:11:21.251Z,63.30
2019-02-18T22:13:51.118Z,63.10
2019-02-18T22:16:21.034Z,63.40
2019-02-18T22:18:51.488Z,63.50
2019-02-18T22:21:21.535Z,63.90
2019-02-18T22:23:52.092Z,64.70
2019-02-18T22:26:21.940Z,64.80
2019-02-18T22:28:51.870Z,64.70
2019-02-18T22:31:21.710Z,64.60
2019-02-18T22:33:51.492Z,64.90
2019-02-18T22:36:21.934Z,65.20
2019-02-18T22:38:51.805Z,65.60
2019-02-18T22:41:21.826Z,65.90
2019-02-18T22:43:51.633Z,66.20
2019-02-18T22:46:21.785Z,66.50
2019-02-18T22:48:51.694Z,66.50
2019-02-18T22:51:21.658Z,66.90
2019-02-18T22:53:51.521Z,66.50
2019-02-18T22:56:22.377Z,66.40
2019-02-18T22:58:52.134Z,66.50
2019-02-18T23:01:22.198Z,66.90
2019-02-18T23:03:52.153Z,66.80
2019-02-18T23:06:22.527Z,66.70
2019-02-18T23:08:53.445Z,66.70
2019-02-18T23:11:23.470Z,66.40
2019-02-18T23:13:53.416Z,66.40
2019-02-18T23:16:23.398Z,65.90
2019-02-18T23:18:53.535Z,66.00
2019-02-18T23:21:23.773Z,65.60
2019-02-18T23:23:53.616Z,65.10
2019-02-18T23:26:23.784Z,64.70
2019-02-18T23:28:53.731Z,64.40
2019-02-18T23:31:23.740Z,64.30
2019-02-18T23:33:53.584Z,64.40
2019-02-18T23:36:23.878Z,64.40
2019-02-18T23:38:53.720Z,64.60
2019-02-18T23:41:23.646Z,64.60
2019-02-18T23:43:53.566Z,64.30
2019-02-18T23:46:23.437Z,64.50
2019-02-18T23:48:53.311Z,64.60
2019-02-18T23:51:23.268Z,64.30
2019-02-18T23:53:53.125Z,64.60
2019-02-18T23:56:23.005Z,64.50
2019-02-18T23:58:53.978Z,64.40
